Observations for GROTTAGLIE CIV AFB, Italy (LIBG)

LIBG 240850Z 34008KT 9999 FEW020 29/19 Q1014
LIBG 240750Z 35004KT 300V070 9999 FEW020 27/20 Q1014
LIBG 240650Z 33006KT CAVOK 26/19 Q1015  
LIBG 240600Z 00000KT CAVOK 26/10 Q1015
LIBG 231750Z 04014KT CAVOK 27/19 Q1012  
LIBG 231650Z 05011KT CAVOK 29/20 Q1012  
LIBG 231550Z 03012KT CAVOK 29/22 Q1012  
LIBG 231450Z 07008KT CAVOK 30/23 Q1012  
LIBG 231350Z 07009KT 040V100 CAVOK 31/23 Q1012  
LIBG 231250Z 04007KT 9999 FEW040 32/22 Q1012
LIBG 231150Z 25006KT 9999 FEW035 34/17 Q1012
LIBG 231050Z 28006KT 9999 FEW035 34/15 Q1012
LIBG 230950Z 15003KT 060V210 CAVOK 31/21 Q1013  
LIBG 230850Z 12003KT 9999 FEW045 29/23 Q1012